Bretagne — FNBR — position and weather

sailwx.info

Track history (hours):
 
Tides and Currents Weather Stations Pressure Air Temp Water Temp Dewpoint Dewpoint Depression Visibility Wind Speed Wind Dir Waves Ship Positions

Bretagne

Operator: Brittany Ferries

Last reported at 2020-Jan-24 03:30 UTC. Time now 2020-Jan-24 05:39 UTC.
Position N 49°53' W 001°54'.

Length 151 m; beam 27 m.

Type: Ship. MMSI: 227286000.

Date/timePositionNaut miles runAvg speedWind from/ knotsBaromVisibWave heightAir tempDewpointWater temp
2020-Jan-24 03:30N 49°53' W 001°54'9 9.2
2020-Jan-24 02:30N 49°45' W 002°02'14 7.1
2020-Jan-24 00:30N 49°32' W 002°11'8 8.3
2020-Jan-23 23:30N 49°25' W 002°16'14 9.6
2020-Jan-23 22:00N 49°11' W 002°22'35 6.3
2020-Jan-23 16:29N 48°38' W 002°02'0 0.0
2020-Jan-23 15:29N 48°38' W 002°02'0 0.0
2020-Jan-23 13:59N 48°38' W 002°02'0 0.0
2020-Jan-23 12:29N 48°38' W 002°02'0 0.0
2020-Jan-23 10:57N 48°38' W 002°02'0 0.0
2020-Jan-23 10:00N 48°38' W 002°02'17 4.2
2020-Jan-23 05:57N 48°51' W 002°20'715.7
2020-Jan-23 05:30N 48°58' W 002°23'12211.6
2020-Jan-22 18:59N 50°49' W 001°06'4 1.1
2020-Jan-22 15:00N 50°44' W 001°04'9 4.4
2020-Jan-22 13:01N 50°37' W 000°56'3 1.3
2020-Jan-22 11:01N 50°38' W 000°52'14 6.9
2020-Jan-22 08:58N 50°49' W 001°06'0 0.0
2020-Jan-22 08:30N 50°49' W 001°06'4911.0
2020-Jan-22 04:01N 50°03' W 001°35'816.5
2020-Jan-22 03:30N 49°57' W 001°44'3710.5
2020-Jan-22 00:00N 49°26' W 002°14'35 9.9
2020-Jan-21 20:30N 48°52' W 002°18'17 1.8
2020-Jan-21 11:13N 48°38' W 002°02'2 0.5
2020-Jan-21 06:46N 48°40' W 002°05'3713.3
2020-Jan-21 04:00N 49°15' W 002°21'611.1
2020-Jan-21 03:30N 49°20' W 002°19'510.9
2020-Jan-21 03:00N 49°25' W 002°15'1811.7
2020-Jan-21 01:30N 49°42' W 002°05'612.7
2020-Jan-21 01:00N 49°47' W 001°60'6516.4
2020-Jan-20 21:01N 50°41' W 001°01'9 3.4
2020-Jan-20 18:28N 50°49' W 001°06'10 6.8
2020-Jan-20 17:00N 50°39' W 001°06'3818.7
2020-Jan-20 14:58N 50°07' W 001°40'3020.5
2020-Jan-20 13:30N 49°42' W 002°03'3020.0
2020-Jan-20 12:00N 49°14' W 002°21'1918.8
2020-Jan-20 11:00N 48°55' W 002°21'7 1.4
2020-Jan-20 05:57N 48°49' W 002°15'511.5
2020-Jan-20 05:30N 48°53' W 002°20'611.6
2020-Jan-20 05:00N 48°59' W 002°22'2214.7
2020-Jan-20 03:30N 49°21' W 002°18'1212.0
2020-Jan-20 02:30N 49°32' W 002°11'1110.6
2020-Jan-20 01:30N 49°42' W 002°04'510.1
2020-Jan-20 01:00N 49°46' W 001°60'6516.2
2020-Jan-19 21:00N 50°40' W 001°04'9 4.4
2020-Jan-19 19:00N 50°49' W 001°06'0 0.0
2020-Jan-19 18:30N 50°49' W 001°06'0 0.0
2020-Jan-19 16:30N 50°49' W 001°06'0 0.0
2020-Jan-19 13:00N 50°49' W 001°06'0 0.0
2020-Jan-19 11:00N 50°49' W 001°06'0 0.0
2020-Jan-19 10:31N 50°49' W 001°06'0 0.0
2020-Jan-19 10:00N 50°49' W 001°06'2 1.3
2020-Jan-19 08:30N 50°47' W 001°06'2210.9
2020-Jan-19 06:30N 50°26' W 001°16'3511.6
2020-Jan-19 03:29N 49°58' W 001°48'3313.3
2020-Jan-19 01:00N 49°29' W 002°13'612.7
2020-Jan-19 00:30N 49°23' W 002°17'2811.3
2020-Jan-18 22:00N 48°55' W 002°21'510.3
2020-Jan-18 21:30N 48°51' W 002°16'16 3.1
2020-Jan-18 16:27N 48°38' W 002°02'1010.5
2020-Jan-18 15:31N 48°48' W 002°04'2 2.6
2020-Jan-18 14:55N 48°48' W 002°02'7 0.9
2020-Jan-18 06:28N 48°48' W 002°13'511.5
2020-Jan-18 06:00N 48°52' W 002°18'2814.1
2020-Jan-18 04:01N 49°19' W 002°27'2814.0
2020-Jan-18 02:01N 49°43' W 002°04'1111.1
2020-Jan-18 01:01N 49°49' W 001°49'5911.8
2020-Jan-17 20:00N 50°40' W 001°04'9 5.6
2020-Jan-17 18:27N 50°49' W 001°06'0 0.0
2020-Jan-17 17:28N 50°49' W 001°06'0 0.0
2020-Jan-17 16:27N 50°49' W 001°06'0 0.0
2020-Jan-17 14:58N 50°49' W 001°06'0 0.0
2020-Jan-17 11:27N 50°49' W 001°06'2 0.7
2020-Jan-17 08:30N 50°47' W 001°06'15 9.8
2020-Jan-17 07:00N 50°33' W 001°12'5311.8
2020-Jan-17 02:31N 49°48' W 001°57'2211.2
2020-Jan-17 00:31N 49°28' W 002°13'50 4.1
2020-Jan-16 12:22N 48°38' W 002°02'0 0.0
2020-Jan-16 11:58N 48°38' W 002°02'0 0.0
2020-Jan-16 10:55N 48°38' W 002°02'41 6.4
2020-Jan-16 04:31N 49°15' W 002°31'612.1
2020-Jan-16 04:00N 49°21' W 002°29'815.4
2020-Jan-16 03:31N 49°24' W 002°18'1919.0
2020-Jan-16 02:31N 49°41' W 002°04'1717.1
2020-Jan-16 01:31N 49°54' W 001°47'3012.8
2020-Jan-15 23:08N 50°19' W 001°22'812.6
2020-Jan-15 22:29N 50°26' W 001°13'23 9.4
2020-Jan-15 20:00N 50°49' W 001°06'0 0.2
2020-Jan-15 19:30N 50°49' W 001°06'2 1.1
2020-Jan-15 18:00N 50°47' W 001°06'8 1.9
2020-Jan-15 14:00N 50°40' W 001°04'2 1.4
2020-Jan-15 12:30N 50°38' W 001°06'4 4.3
2020-Jan-15 11:30N 50°42' W 001°03'7 3.6
2020-Jan-15 09:30N 50°49' W 001°06'0 0.0
2020-Jan-15 08:30N 50°49' W 001°06'5811.1
2020-Jan-15 03:16N 49°57' W 001°47'1114.4
2020-Jan-15 02:30N 49°49' W 001°59'1414.3
2020-Jan-15 01:30N 49°36' W 002°10'2315.5
2020-Jan-15 00:00N 49°16' W 002°27'2911.7
2020-Jan-14 21:30N 48°47' W 002°31'7 9.3
2020-Jan-14 20:47N 48°45' W 002°21'6 0.4
2020-Jan-14 06:00N 48°50' W 002°16'917.2
2020-Jan-14 05:30N 48°57' W 002°23'  
Track history (hours):
 
Tides and Currents Weather Stations Pressure Air Temp Water Temp Dewpoint Dewpoint Depression Visibility Wind Speed Wind Dir Waves Ship Positions

Bretagne

Operator: Brittany Ferries

Last reported at 2020-Jan-24 03:30 UTC. Time now 2020-Jan-24 05:39 UTC.
Position N 49°53' W 001°54'.

Length 151 m; beam 27 m.

Type: Ship. MMSI: 227286000.

Date/timePositionNaut miles runAvg speedWind from/ knotsBaromVisibWave heightAir tempDewpointWater temp
2020-Jan-24 03:30N 49°53' W 001°54'9 9.2
2020-Jan-24 02:30N 49°45' W 002°02'14 7.1
2020-Jan-24 00:30N 49°32' W 002°11'8 8.3
2020-Jan-23 23:30N 49°25' W 002°16'14 9.6
2020-Jan-23 22:00N 49°11' W 002°22'35 6.3
2020-Jan-23 16:29N 48°38' W 002°02'0 0.0
2020-Jan-23 15:29N 48°38' W 002°02'0 0.0
2020-Jan-23 13:59N 48°38' W 002°02'0 0.0
2020-Jan-23 12:29N 48°38' W 002°02'0 0.0
2020-Jan-23 10:57N 48°38' W 002°02'0 0.0
2020-Jan-23 10:00N 48°38' W 002°02'17 4.2
2020-Jan-23 05:57N 48°51' W 002°20'715.7
2020-Jan-23 05:30N 48°58' W 002°23'12211.6
2020-Jan-22 18:59N 50°49' W 001°06'4 1.1
2020-Jan-22 15:00N 50°44' W 001°04'9 4.4
2020-Jan-22 13:01N 50°37' W 000°56'3 1.3
2020-Jan-22 11:01N 50°38' W 000°52'14 6.9
2020-Jan-22 08:58N 50°49' W 001°06'0 0.0
2020-Jan-22 08:30N 50°49' W 001°06'4911.0
2020-Jan-22 04:01N 50°03' W 001°35'816.5
2020-Jan-22 03:30N 49°57' W 001°44'3710.5
2020-Jan-22 00:00N 49°26' W 002°14'35 9.9
2020-Jan-21 20:30N 48°52' W 002°18'17 1.8
2020-Jan-21 11:13N 48°38' W 002°02'2 0.5
2020-Jan-21 06:46N 48°40' W 002°05'3713.3
2020-Jan-21 04:00N 49°15' W 002°21'611.1
2020-Jan-21 03:30N 49°20' W 002°19'510.9
2020-Jan-21 03:00N 49°25' W 002°15'1811.7
2020-Jan-21 01:30N 49°42' W 002°05'612.7
2020-Jan-21 01:00N 49°47' W 001°60'6516.4
2020-Jan-20 21:01N 50°41' W 001°01'9 3.4
2020-Jan-20 18:28N 50°49' W 001°06'10 6.8
2020-Jan-20 17:00N 50°39' W 001°06'3818.7
2020-Jan-20 14:58N 50°07' W 001°40'3020.5
2020-Jan-20 13:30N 49°42' W 002°03'3020.0
2020-Jan-20 12:00N 49°14' W 002°21'1918.8
2020-Jan-20 11:00N 48°55' W 002°21'7 1.4
2020-Jan-20 05:57N 48°49' W 002°15'511.5
2020-Jan-20 05:30N 48°53' W 002°20'611.6
2020-Jan-20 05:00N 48°59' W 002°22'2214.7
2020-Jan-20 03:30N 49°21' W 002°18'1212.0
2020-Jan-20 02:30N 49°32' W 002°11'1110.6
2020-Jan-20 01:30N 49°42' W 002°04'510.1
2020-Jan-20 01:00N 49°46' W 001°60'6516.2
2020-Jan-19 21:00N 50°40' W 001°04'9 4.4
2020-Jan-19 19:00N 50°49' W 001°06'0 0.0
2020-Jan-19 18:30N 50°49' W 001°06'0 0.0
2020-Jan-19 16:30N 50°49' W 001°06'0 0.0
2020-Jan-19 13:00N 50°49' W 001°06'0 0.0
2020-Jan-19 11:00N 50°49' W 001°06'0 0.0
2020-Jan-19 10:31N 50°49' W 001°06'0 0.0
2020-Jan-19 10:00N 50°49' W 001°06'2 1.3
2020-Jan-19 08:30N 50°47' W 001°06'2210.9
2020-Jan-19 06:30N 50°26' W 001°16'3511.6
2020-Jan-19 03:29N 49°58' W 001°48'3313.3
2020-Jan-19 01:00N 49°29' W 002°13'612.7
2020-Jan-19 00:30N 49°23' W 002°17'2811.3
2020-Jan-18 22:00N 48°55' W 002°21'510.3
2020-Jan-18 21:30N 48°51' W 002°16'16 3.1
2020-Jan-18 16:27N 48°38' W 002°02'1010.5
2020-Jan-18 15:31N 48°48' W 002°04'2 2.6
2020-Jan-18 14:55N 48°48' W 002°02'7 0.9
2020-Jan-18 06:28N 48°48' W 002°13'511.5
2020-Jan-18 06:00N 48°52' W 002°18'2814.1
2020-Jan-18 04:01N 49°19' W 002°27'2814.0
2020-Jan-18 02:01N 49°43' W 002°04'1111.1
2020-Jan-18 01:01N 49°49' W 001°49'5911.8
2020-Jan-17 20:00N 50°40' W 001°04'9 5.6
2020-Jan-17 18:27N 50°49' W 001°06'0 0.0
2020-Jan-17 17:28N 50°49' W 001°06'0 0.0
2020-Jan-17 16:27N 50°49' W 001°06'0 0.0
2020-Jan-17 14:58N 50°49' W 001°06'0 0.0
2020-Jan-17 11:27N 50°49' W 001°06'2 0.7
2020-Jan-17 08:30N 50°47' W 001°06'15 9.8
2020-Jan-17 07:00N 50°33' W 001°12'5311.8
2020-Jan-17 02:31N 49°48' W 001°57'2211.2
2020-Jan-17 00:31N 49°28' W 002°13'50 4.1
2020-Jan-16 12:22N 48°38' W 002°02'0 0.0
2020-Jan-16 11:58N 48°38' W 002°02'0 0.0
2020-Jan-16 10:55N 48°38' W 002°02'41 6.4
2020-Jan-16 04:31N 49°15' W 002°31'612.1
2020-Jan-16 04:00N 49°21' W 002°29'815.4
2020-Jan-16 03:31N 49°24' W 002°18'1919.0
2020-Jan-16 02:31N 49°41' W 002°04'1717.1
2020-Jan-16 01:31N 49°54' W 001°47'3012.8
2020-Jan-15 23:08N 50°19' W 001°22'812.6
2020-Jan-15 22:29N 50°26' W 001°13'23 9.4
2020-Jan-15 20:00N 50°49' W 001°06'0 0.2
2020-Jan-15 19:30N 50°49' W 001°06'2 1.1
2020-Jan-15 18:00N 50°47' W 001°06'8 1.9
2020-Jan-15 14:00N 50°40' W 001°04'2 1.4
2020-Jan-15 12:30N 50°38' W 001°06'4 4.3
2020-Jan-15 11:30N 50°42' W 001°03'7 3.6
2020-Jan-15 09:30N 50°49' W 001°06'0 0.0
2020-Jan-15 08:30N 50°49' W 001°06'5811.1
2020-Jan-15 03:16N 49°57' W 001°47'1114.4
2020-Jan-15 02:30N 49°49' W 001°59'1414.3
2020-Jan-15 01:30N 49°36' W 002°10'2315.5
2020-Jan-15 00:00N 49°16' W 002°27'2911.7
2020-Jan-14 21:30N 48°47' W 002°31'7 9.3
2020-Jan-14 20:47N 48°45' W 002°21'6 0.4
2020-Jan-14 06:00N 48°50' W 002°16'917.2
2020-Jan-14 05:30N 48°57' W 002°23'  

Dump ship's entire track history